Time;durP1;ratioP1;P1;durP2;ratioP2;P2;SDS_P1;SDS_P2;PMS_P1;PMS_P2;Temp;Humidity;BMP_temperature;BMP_pressure;BME280_temperature;BME280_humidity;BME280_pressure;Samples;Min_cycle;Max_cycle;Signal;HPM_P1;HPM_P2
2023/07/30 08:29:52;;;;;;;;;;;;;;;7.28;100.00;99502.34;5603975;23;19933;-84
2023/07/30 08:32:17;;;;;;;;;;;;;;;7.12;100.00;99508.19;5035623;28;19921;-87
2023/07/30 08:34:42;;;;;;;;;;;;;;;7.03;100.00;99504.91;5035558;28;19975;-88
2023/07/30 08:37:07;;;;;;;;;;;;;;;7.01;100.00;99519.06;5033892;28;19921;-86
2023/07/30 08:39:33;;;;;;;;;;;;;;;7.04;100.00;99513.72;5034138;28;19917;-86
2023/07/30 08:41:58;;;;;;;;;;;;;;;7.05;100.00;99520.69;5035192;28;19913;-87
2023/07/30 08:44:23;;;;;;;;;;;;;;;6.99;100.00;99513.84;5032789;28;20360;-86
2023/07/30 08:46:49;;;;;;;;;;;;;;;7.13;100.00;99518.66;5031769;28;19917;-86
2023/07/30 08:49:14;;;;;;;;;;;;;;;7.09;100.00;99522.31;5031004;28;19961;-84
2023/07/30 08:51:42;;;;;;;;;;;;;;;7.13;100.00;99526.56;5033891;28;19921;-85
2023/07/30 08:54:08;;;;;;;;;;;;;;;7.09;100.00;99528.44;5033745;28;20343;-84
2023/07/30 08:56:33;;;;;;;;;;;;;;;7.22;100.00;99528.91;5035093;28;19968;-84
2023/07/30 08:58:59;;;;;;;;;;;;;;;7.09;100.00;99523.16;5032335;28;20261;-85
2023/07/30 09:01:29;;;;;;;;;;;;;;;6.95;100.00;99512.22;5033852;28;19925;-84
2023/07/30 09:03:54;;;;;;;;;;;;;;;6.93;100.00;99526.38;5034329;28;20383;-84
2023/07/30 09:06:20;;;;;;;;;;;;;;;7.06;100.00;99523.25;5034789;28;19918;-84
2023/07/30 09:08:45;;;;;;;;;;;;;;;6.97;100.00;99528.81;5034916;28;19944;-84
2023/07/30 09:11:10;;;;;;;;;;;;;;;7.07;100.00;99529.41;5034708;28;19921;-84
2023/07/30 09:13:40;;;;;;;;;;;;;;;7.04;100.00;99533.00;5033403;28;19956;-84
2023/07/30 09:16:12;;;;;;;;;;;;;;;7.13;100.00;99538.88;5033429;28;19968;-85
2023/07/30 09:18:49;;;;;;;;;;;;;;;7.40;100.00;99558.19;5034474;28;19921;-86
2023/07/30 09:21:14;;;;;;;;;;;;;;;8.12;100.00;99558.31;5034102;28;19940;-87
2023/07/30 09:23:40;;;;;;;;;;;;;;;8.31;100.00;99557.63;5033275;28;20375;-85
2023/07/30 09:26:06;;;;;;;;;;;;;;;8.44;100.00;99553.66;5033261;28;19921;-84
2023/07/30 09:28:31;;;;;;;;;;;;;;;8.04;100.00;99552.47;5032758;28;19920;-84
2023/07/30 09:31:01;;;;;;;;;;;;;;;7.58;100.00;99556.72;5032025;28;20240;-85
2023/07/30 09:33:27;;;;;;;;;;;;;;;7.39;100.00;99559.97;5034595;28;19928;-84
2023/07/30 09:35:53;;;;;;;;;;;;;;;7.39;100.00;99565.25;5033115;28;19921;-84
2023/07/30 09:38:19;;;;;;;;;;;;;;;7.46;100.00;99564.09;5032102;28;21116;-83
2023/07/30 12:56:45;;;;;;;;;;;;;;;6.55;100.00;99617.00;5013065;28;20391;-87
2023/07/30 12:59:10;;;;;;;;;;;;;;;6.54;100.00;99630.19;5014480;28;19926;-89
2023/07/30 13:01:38;;;;;;;;;;;;;;;6.57;100.00;99630.13;5015609;28;19917;-87
2023/07/30 13:04:03;;;;;;;;;;;;;;;6.60;100.00;99635.28;5015081;28;19922;-89
2023/07/30 13:06:28;;;;;;;;;;;;;;;6.51;100.00;99636.44;5015214;28;19944;-89
2023/07/30 13:08:53;;;;;;;;;;;;;;;6.59;100.00;99638.84;5013696;28;19972;-90
2023/07/30 13:11:19;;;;;;;;;;;;;;;6.50;100.00;99639.97;5013780;28;19979;-89
2023/07/30 13:13:45;;;;;;;;;;;;;;;6.48;100.00;99636.53;5011895;28;19925;-88
2023/07/30 13:16:10;;;;;;;;;;;;;;;6.53;100.00;99639.88;5013941;28;20019;-89
2023/07/30 13:18:35;;;;;;;;;;;;;;;6.51;100.00;99643.44;5014158;28;19921;-89
2023/07/30 13:21:00;;;;;;;;;;;;;;;6.56;100.00;99644.22;5011796;28;19921;-91
2023/07/30 13:23:26;;;;;;;;;;;;;;;6.47;100.00;99641.84;5012600;28;19991;-89
2023/07/30 13:25:51;;;;;;;;;;;;;;;6.50;100.00;99639.97;5013789;28;19917;-90
2023/07/30 13:28:19;;;;;;;;;;;;;;;6.64;100.00;99650.13;5013824;28;20004;-89
2023/07/30 13:30:44;;;;;;;;;;;;;;;6.65;100.00;99640.44;5012847;28;19965;-88
2023/07/30 13:33:09;;;;;;;;;;;;;;;6.64;100.00;99644.84;5016696;28;19964;-89
2023/07/30 13:35:35;;;;;;;;;;;;;;;6.63;100.00;99651.00;5013386;28;20320;-89
2023/07/30 13:38:00;;;;;;;;;;;;;;;6.62;100.00;99651.94;5013024;28;19924;-89
2023/07/30 13:40:25;;;;;;;;;;;;;;;6.56;100.00;99657.38;5011237;28;19924;-89
2023/07/30 13:42:50;;;;;;;;;;;;;;;6.90;100.00;99654.59;5012844;28;19925;-88
2023/07/30 13:45:16;;;;;;;;;;;;;;;7.59;100.00;99648.09;5012221;28;20766;-88
2023/07/30 13:47:41;;;;;;;;;;;;;;;7.89;100.00;99651.47;5011305;28;19921;-88
2023/07/30 13:50:07;;;;;;;;;;;;;;;8.03;100.00;99656.28;5021524;28;20257;-88
2023/07/30 13:52:32;;;;;;;;;;;;;;;7.78;100.00;99657.09;5013037;28;19918;-87
2023/07/30 13:54:57;;;;;;;;;;;;;;;7.25;100.00;99665.84;5011240;28;20012;-88
2023/07/30 13:57:26;;;;;;;;;;;;;;;7.18;100.00;99666.06;5014507;28;19928;-88
2023/07/30 13:59:52;;;;;;;;;;;;;;;7.05;100.00;99652.41;5011242;28;20345;-87
2023/07/30 14:02:17;;;;;;;;;;;;;;;6.99;100.00;99658.75;5013763;28;20024;-87
2023/07/30 14:04:42;;;;;;;;;;;;;;;6.91;100.00;99643.16;5012680;28;20292;-87
2023/07/30 14:07:08;;;;;;;;;;;;;;;6.76;100.00;99655.94;5011347;28;20369;-88
2023/07/30 14:09:36;;;;;;;;;;;;;;;6.82;100.00;99646.06;5011958;28;20017;-88
2023/07/30 14:12:01;;;;;;;;;;;;;;;6.76;100.00;99640.13;5019778;28;19969;-88
2023/07/30 14:14:27;;;;;;;;;;;;;;;6.75;100.00;99638.38;5012044;28;20054;-86
2023/07/30 14:16:54;;;;;;;;;;;;;;;6.80;100.00;99645.25;5004629;28;19922;-88
2023/07/30 14:19:19;;;;;;;;;;;;;;;6.90;100.00;99637.94;5013716;28;19981;-88
2023/07/30 14:21:44;;;;;;;;;;;;;;;6.90;100.00;99632.69;5013804;28;20318;-88
2023/07/30 14:24:10;;;;;;;;;;;;;;;6.81;100.00;99640.84;5010040;28;19928;-90
2023/07/30 14:26:36;;;;;;;;;;;;;;;6.75;100.00;99644.53;5011228;28;19921;-89
2023/07/30 14:29:01;;;;;;;;;;;;;;;6.80;100.00;99637.34;5012395;28;19921;-88
2023/07/30 14:31:29;;;;;;;;;;;;;;;6.85;100.00;99635.44;5012990;28;20296;-93
2023/07/30 14:33:55;;;;;;;;;;;;;;;6.75;100.00;99646.28;5013572;28;19924;-86
2023/07/30 14:36:20;;;;;;;;;;;;;;;6.69;100.00;99637.66;5014133;28;20001;-86
2023/07/30 14:38:49;;;;;;;;;;;;;;;6.75;100.00;99641.03;5011125;28;19971;-87
2023/07/30 14:41:16;;;;;;;;;;;;;;;6.73;100.00;99647.22;5014282;28;19921;-91
2023/07/30 14:44:16;;;;;;;;;;;;;;;6.82;100.00;99645.22;5012616;28;19921;-89
2023/07/30 14:46:41;;;;;;;;;;;;;;;6.66;100.00;99645.66;4999641;28;19917;-90
2023/07/30 14:49:07;;;;;;;;;;;;;;;6.68;100.00;99635.94;5013386;28;19921;-88
2023/07/30 14:51:32;;;;;;;;;;;;;;;6.68;100.00;99637.72;5012322;28;20007;-88
2023/07/30 14:53:57;;;;;;;;;;;;;;;6.63;100.00;99629.94;5010878;28;19922;-85
2023/07/30 14:56:23;;;;;;;;;;;;;;;6.78;100.00;99633.03;5013751;28;19921;-88
2023/07/30 14:58:48;;;;;;;;;;;;;;;7.56;100.00;99627.09;5011767;28;20494;-92
2023/07/30 15:01:13;;;;;;;;;;;;;;;7.98;100.00;99629.19;5013005;28;19917;-89
2023/07/30 15:03:39;;;;;;;;;;;;;;;8.07;100.00;99628.84;5013004;28;20008;-89
2023/07/30 15:06:07;;;;;;;;;;;;;;;8.25;100.00;99622.09;5012947;28;19921;-89
2023/07/30 15:08:36;;;;;;;;;;;;;;;8.17;100.00;99627.63;5012270;28;19918;-88
2023/07/30 15:11:02;;;;;;;;;;;;;;;7.46;100.00;99644.97;5011915;28;20525;-88
2023/07/30 15:13:45;;;;;;;;;;;;;;;7.28;100.00;99638.53;5013293;28;19925;-90
2023/07/30 15:16:12;;;;;;;;;;;;;;;7.05;100.00;99619.03;5010881;28;19917;-92
2023/07/30 15:18:38;;;;;;;;;;;;;;;7.04;100.00;99624.34;5011674;28;19917;-91
2023/07/30 15:21:08;;;;;;;;;;;;;;;7.00;100.00;99631.47;5012735;28;20004;-91
2023/07/30 15:23:37;;;;;;;;;;;;;;;7.00;100.00;99623.56;5011326;28;20266;-90
2023/07/30 15:26:02;;;;;;;;;;;;;;;6.96;100.00;99621.09;5028044;28;19921;-87
2023/07/30 15:28:36;;;;;;;;;;;;;;;6.86;100.00;99626.66;5012992;28;19917;-89
2023/07/30 15:31:02;;;;;;;;;;;;;;;6.86;100.00;99620.50;5010727;28;19924;-91
2023/07/30 15:33:29;;;;;;;;;;;;;;;6.79;100.00;99624.25;5013005;28;19918;-86
2023/07/30 15:35:55;;;;;;;;;;;;;;;6.78;100.00;99622.50;5010924;28;19918;-89
2023/07/30 15:38:20;;;;;;;;;;;;;;;6.78;100.00;99627.75;5010374;28;20109;-87
2023/07/30 15:40:45;;;;;;;;;;;;;;;6.84;100.00;99617.06;5010753;28;19928;-88
2023/07/30 15:43:12;;;;;;;;;;;;;;;6.72;100.00;99623.56;5011211;28;19924;-93
2023/07/30 15:45:42;;;;;;;;;;;;;;;6.73;100.00;99633.16;5012669;28;19925;-89
2023/07/30 15:48:08;;;;;;;;;;;;;;;6.67;100.00;99630.72;5012749;28;19925;-89
2023/07/30 15:50:33;;;;;;;;;;;;;;;6.71;100.00;99625.31;5011086;28;19921;-89
2023/07/30 15:52:58;;;;;;;;;;;;;;;6.76;100.00;99633.06;5010722;28;19922;-88
2023/07/30 15:55:24;;;;;;;;;;;;;;;6.70;100.00;99636.78;5010738;28;19925;-88
2023/07/30 15:57:52;;;;;;;;;;;;;;;6.63;100.00;99627.31;5011233;28;19921;-88
2023/07/30 16:00:19;;;;;;;;;;;;;;;6.66;100.00;99626.38;5010811;28;19921;-87
2023/07/30 16:02:44;;;;;;;;;;;;;;;6.67;100.00;99626.34;5010953;28;20379;-89
2023/07/30 16:05:09;;;;;;;;;;;;;;;6.68;100.00;99628.03;5009709;28;19925;-89
2023/07/30 16:07:35;;;;;;;;;;;;;;;6.64;100.00;99625.56;5011222;28;20392;-89
2023/07/30 16:10:00;;;;;;;;;;;;;;;6.66;100.00;99629.00;5009578;28;20004;-89
2023/07/30 16:12:26;;;;;;;;;;;;;;;6.68;100.00;99628.03;5009277;28;19983;-88
2023/07/30 16:14:52;;;;;;;;;;;;;;;6.70;100.00;99626.25;5011170;28;19922;-90
2023/07/30 16:17:17;;;;;;;;;;;;;;;6.66;100.00;99624.59;5010833;28;19921;-89
2023/07/30 16:19:42;;;;;;;;;;;;;;;6.67;100.00;99615.78;5010961;28;19917;-89
2023/07/30 16:22:08;;;;;;;;;;;;;;;6.61;100.00;99625.66;5010850;28;20276;-91
2023/07/30 16:24:33;;;;;;;;;;;;;;;6.68;100.00;99628.03;5009469;28;19917;-90
2023/07/30 16:26:59;;;;;;;;;;;;;;;6.69;100.00;99628.91;5010756;28;19932;-89
2023/07/30 16:29:24;;;;;;;;;;;;;;;6.70;100.00;99620.97;5011836;28;19971;-89
2023/07/30 16:31:49;;;;;;;;;;;;;;;6.65;100.00;99625.53;5011951;28;20051;-88
2023/07/30 16:34:15;;;;;;;;;;;;;;;6.76;100.00;99619.06;5010611;28;19924;-89
2023/07/30 16:36:40;;;;;;;;;;;;;;;6.70;100.00;99610.44;5010494;28;19941;-89
2023/07/30 16:39:06;;;;;;;;;;;;;;;6.65;100.00;99612.34;5009601;28;20340;-89
2023/07/30 16:41:34;;;;;;;;;;;;;;;6.69;100.00;99613.13;5010943;28;20368;-89
2023/07/30 16:44:00;;;;;;;;;;;;;;;6.67;100.00;99614.91;5008385;28;20376;-90
2023/07/30 16:46:25;;;;;;;;;;;;;;;6.68;100.00;99598.22;5009693;28;19922;-89
2023/07/30 16:48:50;;;;;;;;;;;;;;;6.60;100.00;99603.72;5012079;28;20364;-88
2023/07/30 16:51:32;;;;;;;;;;;;;;;6.63;100.00;99603.63;5012732;28;20012;-88
2023/07/30 16:53:58;;;;;;;;;;;;;;;7.33;100.00;99604.97;5024109;28;19972;-89
2023/07/30 16:56:29;;;;;;;;;;;;;;;7.06;100.00;99610.22;5010365;28;19925;-88
2023/07/30 16:58:54;;;;;;;;;;;;;;;6.90;100.00;99608.97;5013007;28;19949;-89
2023/07/30 17:01:22;;;;;;;;;;;;;;;6.81;100.00;99609.25;5013278;28;19972;-89
2023/07/30 17:03:47;;;;;;;;;;;;;;;6.78;100.00;99609.34;5013141;28;19925;-90
2023/07/30 17:06:38;;;;;;;;;;;;;;;6.81;100.00;99615.41;5014539;28;19925;-89
2023/07/30 17:09:03;;;;;;;;;;;;;;;6.79;100.00;99613.69;5012005;28;20406;-90
2023/07/30 17:11:29;;;;;;;;;;;;;;;6.91;100.00;99608.91;5013316;28;19922;-90
2023/07/30 17:13:55;;;;;;;;;;;;;;;6.89;100.00;99613.38;5013809;28;19976;-90
2023/07/30 17:16:52;;;;;;;;;;;;;;;;;;;;;
2023/07/30 17:19:17;;;;;;;;;;;;;;;6.82;100.00;99616.25;5014825;28;19917;-90
2023/07/30 17:21:43;;;;;;;;;;;;;;;6.83;100.00;99612.69;5012215;28;20020;-90
2023/07/30 17:24:09;;;;;;;;;;;;;;;6.81;100.00;99606.59;5011790;28;19924;-88
2023/07/30 17:26:34;;;;;;;;;;;;;;;6.77;100.00;99619.00;5014373;28;20363;-89
2023/07/30 17:29:00;;;;;;;;;;;;;;;6.79;100.00;99611.06;5012947;28;20424;-91
2023/07/30 17:31:25;;;;;;;;;;;;;;;6.88;100.00;99611.66;5012769;28;19929;-87
2023/07/30 17:33:50;;;;;;;;;;;;;;;6.83;100.00;99615.31;5013426;28;19980;-86
2023/07/30 17:36:15;;;;;;;;;;;;;;;6.80;100.00;99620.72;5013170;28;19918;-90
2023/07/30 17:38:41;;;;;;;;;;;;;;;6.84;100.00;99619.69;5009953;28;19988;-89
2023/07/30 17:41:06;;;;;;;;;;;;;;;6.78;100.00;99622.50;5027983;28;19921;-90
2023/07/30 17:43:31;;;;;;;;;;;;;;;6.81;100.00;99619.78;5014347;28;19928;-88
2023/07/30 17:45:57;;;;;;;;;;;;;;;6.84;100.00;99623.16;5012730;28;20328;-90
2023/07/30 17:48:31;;;;;;;;;;;;;;;6.80;100.00;99626.81;5011874;28;19972;-89
2023/07/30 17:51:29;;;;;;;;;;;;;;;6.73;100.00;99623.53;5010264;28;19925;-88
2023/07/30 17:53:57;;;;;;;;;;;;;;;6.87;100.00;99630.13;5010255;28;19922;-88
2023/07/30 17:56:22;;;;;;;;;;;;;;;6.83;100.00;99632.00;5011354;28;19983;-88
2023/07/30 17:58:48;;;;;;;;;;;;;;;6.77;100.00;99631.31;5009637;28;19921;-88
2023/07/30 18:01:14;;;;;;;;;;;;;;;6.81;100.00;99632.94;5012248;28;19928;-90
2023/07/30 18:03:43;;;;;;;;;;;;;;;6.81;100.00;99633.81;5011977;28;19930;-89
2023/07/30 18:06:09;;;;;;;;;;;;;;;6.76;100.00;99634.84;5013735;28;20376;-88
2023/07/30 18:08:34;;;;;;;;;;;;;;;6.77;100.00;99634.81;5010849;28;19948;-91
2023/07/30 18:10:59;;;;;;;;;;;;;;;6.76;100.00;99630.44;5013043;28;19925;-87
2023/07/30 18:13:25;;;;;;;;;;;;;;;6.71;100.00;99635.00;5011244;28;19948;-88
2023/07/30 18:15:50;;;;;;;;;;;;;;;6.74;100.00;99629.63;5012614;28;19917;-90
2023/07/30 18:18:18;;;;;;;;;;;;;;;6.68;100.00;99637.72;5013150;28;19925;-90
2023/07/30 18:20:43;;;;;;;;;;;;;;;6.79;100.00;99638.25;5009442;28;20245;-90
2023/07/30 18:23:41;;;;;;;;;;;;;;;6.70;100.00;99636.78;5007828;28;19979;-90
2023/07/30 18:26:06;;;;;;;;;;;;;;;6.69;100.00;99640.31;5026120;28;20581;-90
2023/07/30 18:28:32;;;;;;;;;;;;;;;6.78;100.00;99648.84;5011314;28;20435;-90
2023/07/30 18:30:59;;;;;;;;;;;;;;;6.75;100.00;99649.81;5011798;28;20380;-91
2023/07/30 18:33:25;;;;;;;;;;;;;;;6.66;100.00;99658.81;5009343;28;20384;-91
2023/07/30 18:35:56;;;;;;;;;;;;;;;6.68;100.00;99659.63;5011872;28;19921;-91
2023/07/30 18:38:21;;;;;;;;;;;;;;;6.72;100.00;99661.28;5010728;28;19929;-90
2023/07/30 18:40:47;;;;;;;;;;;;;;;6.66;100.00;99658.81;5011078;28;19921;-90
2023/07/30 18:43:21;;;;;;;;;;;;;;;6.69;100.00;99665.78;5010203;28;20288;-89
2023/07/30 18:45:47;;;;;;;;;;;;;;;6.68;100.00;99662.25;5012795;28;20280;-88
2023/07/30 18:48:15;;;;;;;;;;;;;;;6.61;100.00;99663.38;5014008;28;19913;-92
2023/07/30 18:50:40;;;;;;;;;;;;;;;6.67;100.00;99662.31;5012721;28;20007;-90
2023/07/30 18:53:05;;;;;;;;;;;;;;;6.61;100.00;99671.25;5010463;28;20060;-89
2023/07/30 18:55:31;;;;;;;;;;;;;;;6.68;100.00;99662.25;5009392;28;20309;-93
2023/07/30 18:57:56;;;;;;;;;;;;;;;6.65;100.00;99664.13;5005803;28;19928;-90
2023/07/30 19:00:21;;;;;;;;;;;;;;;6.67;100.00;99665.81;5009975;28;19961;-89
2023/07/30 19:02:46;;;;;;;;;;;;;;;6.77;100.00;99671.69;5010872;28;20414;-91
2023/07/30 19:05:12;;;;;;;;;;;;;;;6.77;100.00;99662.94;5013874;28;19918;-90
2023/07/30 19:07:37;;;;;;;;;;;;;;;6.63;100.00;99664.19;5009465;28;19932;-90
2023/07/30 19:10:02;;;;;;;;;;;;;;;6.61;100.00;99658.09;5011358;28;20438;-88
2023/07/30 19:12:28;;;;;;;;;;;;;;;6.70;100.00;99659.59;5028600;28;19941;-89
2023/07/30 19:15:10;;;;;;;;;;;;;;;6.54;100.00;99662.69;5012769;28;19917;-90
2023/07/30 19:17:36;;;;;;;;;;;;;;;6.71;100.00;99670.06;5012143;28;19922;-92
2023/07/30 19:20:01;;;;;;;;;;;;;;;6.64;100.00;99668.53;5010295;28;20296;-90
2023/07/30 19:22:26;;;;;;;;;;;;;;;6.66;100.00;99669.34;5012774;28;19967;-92
2023/07/30 19:24:52;;;;;;;;;;;;;;;6.65;100.00;99675.53;5011248;28;19929;-88
2023/07/30 19:27:17;;;;;;;;;;;;;;;6.68;100.00;99671.94;5013357;28;19964;-93
2023/07/30 19:29:42;;;;;;;;;;;;;;;6.68;100.00;99670.16;5010327;28;19928;-93
2023/07/30 19:32:08;;;;;;;;;;;;;;;6.66;100.00;99668.50;5013878;28;19918;-95
2023/07/30 19:34:33;;;;;;;;;;;;;;;6.67;100.00;99667.56;5013445;28;19921;-94
2023/07/30 19:36:59;;;;;;;;;;;;;;;6.67;100.00;99673.72;5013747;28;20410;-90
2023/07/30 19:39:24;;;;;;;;;;;;;;;6.63;100.00;99672.06;5009611;28;20400;-92
2023/07/30 19:41:51;;;;;;;;;;;;;;;6.65;100.00;99675.53;5012183;28;20300;-92
2023/07/30 19:44:16;;;;;;;;;;;;;;;6.76;100.00;99671.72;5010511;28;19928;-92
2023/07/30 19:46:42;;;;;;;;;;;;;;;6.73;100.00;99677.94;5013046;28;19922;-93
2023/07/30 19:49:07;;;;;;;;;;;;;;;6.70;100.00;99668.38;5014247;28;19921;-95
2023/07/30 19:51:32;;;;;;;;;;;;;;;6.70;100.00;99668.38;5014158;28;19917;-95
2023/07/30 19:53:58;;;;;;;;;;;;;;;6.64;100.00;99679.06;5013479;28;19925;-94
2023/07/30 19:56:23;;;;;;;;;;;;;;;6.65;100.00;99670.28;5014041;28;19922;-93
2023/07/30 19:58:48;;;;;;;;;;;;;;;6.67;100.00;99671.09;5013902;28;20403;-89
2023/07/30 20:01:14;;;;;;;;;;;;;;;6.58;100.00;99681.03;5013866;28;19914;-96
2023/07/30 20:03:39;;;;;;;;;;;;;;;6.61;100.00;99684.44;5012399;28;20288;-87
2023/07/30 20:06:05;;;;;;;;;;;;;;;6.63;100.00;99681.75;5013942;28;20258;-90
2023/07/30 20:08:31;;;;;;;;;;;;;;;6.69;100.00;99686.84;5012230;28;20016;-91
2023/07/30 20:10:56;;;;;;;;;;;;;;;6.72;100.00;99684.13;5013778;28;19976;-92
2023/07/30 20:13:22;;;;;;;;;;;;;;;6.63;100.00;99681.75;5013205;28;20352;-91
2023/07/30 20:15:48;;;;;;;;;;;;;;;6.61;100.00;99668.63;5011691;28;20266;-93
2023/07/30 20:18:13;;;;;;;;;;;;;;;6.65;100.00;99667.66;5011914;28;19917;-92
2023/07/30 20:20:39;;;;;;;;;;;;;;;6.62;100.00;99664.22;5011137;28;20012;-89
2023/07/30 20:23:04;;;;;;;;;;;;;;;6.63;100.00;99666.81;5012128;28;19921;-89
2023/07/30 20:25:34;;;;;;;;;;;;;;;6.60;100.00;99674.78;5015450;28;19980;-93
2023/07/30 20:27:59;;;;;;;;;;;;;;;6.57;100.00;99666.97;5016447;28;19921;-88
2023/07/30 20:30:25;;;;;;;;;;;;;;;6.60;100.00;99661.63;5015208;28;19917;-93
2023/07/30 20:32:50;;;;;;;;;;;;;;;6.56;100.00;99665.28;5015330;28;19920;-84
2023/07/30 20:35:16;;;;;;;;;;;;;;;6.58;100.00;99660.81;5015788;28;20360;-87
2023/07/30 20:37:41;;;;;;;;;;;;;;;6.59;100.00;99664.31;5016784;28;19924;-94
2023/07/30 20:40:07;;;;;;;;;;;;;;;6.55;100.00;99667.00;5016458;28;19920;-91
2023/07/30 20:42:32;;;;;;;;;;;;;;;6.53;100.00;99665.34;5016225;28;20288;-92
2023/07/30 20:44:58;;;;;;;;;;;;;;;6.55;100.00;99659.13;5017455;28;19924;-94
2023/07/30 20:47:23;;;;;;;;;;;;;;;6.57;100.00;99661.72;5015165;28;19964;-90
2023/07/30 20:49:48;;;;;;;;;;;;;;;6.56;100.00;99660.00;5014104;28;19932;-89
2023/07/30 20:52:13;;;;;;;;;;;;;;;6.52;100.00;99660.97;5011720;28;19991;-91
2023/07/30 20:54:39;;;;;;;;;;;;;;;6.52;100.00;99653.94;5014824;28;19925;-91
2023/07/30 20:57:05;;;;;;;;;;;;;;;6.60;100.00;99661.63;5016106;28;19949;-90
2023/07/30 20:59:30;;;;;;;;;;;;;;;6.62;100.00;99662.47;5014487;28;19933;-89
2023/07/30 21:01:55;;;;;;;;;;;;;;;6.49;100.00;99658.44;5016256;28;20036;-93
2023/07/30 21:04:21;;;;;;;;;;;;;;;6.53;100.00;99660.09;5015019;28;19924;-91
2023/07/30 21:06:47;;;;;;;;;;;;;;;6.53;100.00;99662.72;5014637;28;20284;-90
2023/07/30 21:09:13;;;;;;;;;;;;;;;6.58;100.00;99658.19;5012276;28;20361;-89
2023/07/30 21:11:38;;;;;;;;;;;;;;;6.46;100.00;99654.13;5014853;28;19925;-94
2023/07/30 21:14:03;;;;;;;;;;;;;;;6.48;100.00;99652.31;5015747;28;19918;-89
2023/07/30 21:16:28;;;;;;;;;;;;;;;6.45;100.00;99652.41;5014107;28;19932;-93
2023/07/30 21:18:54;;;;;;;;;;;;;;;6.51;100.00;99646.97;5015885;28;19925;-92
2023/07/30 21:21:19;;;;;;;;;;;;;;;6.49;100.00;99653.16;5014156;28;19956;-87
2023/07/30 21:23:44;;;;;;;;;;;;;;;6.49;100.00;99653.16;5014707;28;20056;-89
2023/07/30 21:26:10;;;;;;;;;;;;;;;6.51;100.00;99653.97;5016252;28;20016;-88
2023/07/30 21:28:35;;;;;;;;;;;;;;;6.51;100.00;99656.63;5015941;28;19917;-90
2023/07/30 21:31:04;;;;;;;;;;;;;;;6.44;100.00;99657.72;5015774;28;19917;-89
2023/07/30 21:33:33;;;;;;;;;;;;;;;6.41;100.00;99642.84;5029373;28;20016;-89
2023/07/30 21:35:59;;;;;;;;;;;;;;;6.49;100.00;99640.00;5014379;28;19917;-95
2023/07/30 21:38:24;;;;;;;;;;;;;;;6.40;100.00;99633.25;5015137;28;20276;-95
2023/07/30 21:40:49;;;;;;;;;;;;;;;6.43;100.00;99630.53;5016276;28;19917;-93
2023/07/30 21:43:15;;;;;;;;;;;;;;;6.35;100.00;99633.38;5015300;28;19924;-93
2023/07/30 21:45:40;;;;;;;;;;;;;;;6.40;100.00;99635.00;5016581;28;20422;-92
2023/07/30 21:48:05;;;;;;;;;;;;;;;6.37;100.00;99638.59;5016126;28;19949;-94
2023/07/30 21:50:31;;;;;;;;;;;;;;;6.38;100.00;99642.09;5016659;28;19921;-93
2023/07/30 21:52:56;;;;;;;;;;;;;;;6.40;100.00;99642.91;5016151;28;20288;-90
2023/07/30 21:55:22;;;;;;;;;;;;;;;6.43;100.00;99643.69;5013927;28;20372;-89
2023/07/30 21:57:47;;;;;;;;;;;;;;;6.41;100.00;99648.13;5014689;28;20444;-92
2023/07/30 22:00:12;;;;;;;;;;;;;;;6.39;100.00;99646.47;5016250;28;19940;-92
2023/07/30 22:02:38;;;;;;;;;;;;;;;6.42;100.00;99643.75;5015462;28;20003;-87
2023/07/30 22:05:03;;;;;;;;;;;;;;;6.39;100.00;99641.19;5014078;28;19918;-91
2023/07/30 22:07:29;;;;;;;;;;;;;;;6.35;100.00;99641.28;5014276;28;19925;-91
2023/07/30 22:09:54;;;;;;;;;;;;;;;6.29;100.00;99636.19;5013645;28;19921;-89
2023/07/30 22:12:19;;;;;;;;;;;;;;;6.42;100.00;99641.09;5014793;28;20368;-89
2023/07/30 22:14:47;;;;;;;;;;;;;;;6.40;100.00;99637.63;5014872;28;19921;-92
2023/07/30 22:17:13;;;;;;;;;;;;;;;6.43;100.00;99632.28;5014773;28;19921;-92
2023/07/30 22:19:38;;;;;;;;;;;;;;;6.44;100.00;99628.75;5014266;28;20414;-90
2023/07/30 22:22:03;;;;;;;;;;;;;;;6.47;100.00;99629.53;5014403;28;19921;-91
2023/07/30 22:24:29;;;;;;;;;;;;;;;6.48;100.00;99626.00;5013229;28;19975;-87
2023/07/30 22:26:54;;;;;;;;;;;;;;;6.45;100.00;99630.50;5014296;28;19924;-90
2023/07/30 22:29:19;;;;;;;;;;;;;;;6.45;100.00;99625.22;5014069;28;20053;-90
2023/07/30 22:31:44;;;;;;;;;;;;;;;6.46;100.00;99619.94;5015451;28;20008;-90
2023/07/30 22:34:10;;;;;;;;;;;;;;;6.47;100.00;99620.78;5014727;28;20019;-89
2023/07/30 22:36:35;;;;;;;;;;;;;;;6.40;100.00;99621.84;5013434;28;20083;-89
2023/07/30 22:39:00;;;;;;;;;;;;;;;6.32;100.00;99611.56;5010906;28;20350;-88
2023/07/30 22:41:26;;;;;;;;;;;;;;;6.39;100.00;99618.34;5012130;28;19918;-90
2023/07/30 22:43:51;;;;;;;;;;;;;;;6.43;100.00;99616.50;5013227;28;19917;-88
2023/07/30 22:46:16;;;;;;;;;;;;;;;6.47;100.00;99623.41;5012949;28;19929;-88
2023/07/30 22:48:42;;;;;;;;;;;;;;;6.36;100.00;99616.66;5011924;28;19991;-89
2023/07/30 22:51:07;;;;;;;;;;;;;;;6.43;100.00;99616.50;5012269;28;19929;-89
2023/07/30 22:53:32;;;;;;;;;;;;;;;6.42;100.00;99617.41;5012412;28;20020;-87
2023/07/30 22:55:57;;;;;;;;;;;;;;;6.35;100.00;99624.59;5013118;28;20332;-88
2023/07/30 22:58:22;;;;;;;;;;;;;;;6.45;100.00;99622.59;5013628;28;20280;-89
2023/07/30 23:00:48;;;;;;;;;;;;;;;6.42;100.00;99620.06;5011709;28;19921;-90
2023/07/30 23:03:13;;;;;;;;;;;;;;;6.37;100.00;99617.53;5012185;28;19925;-89
2023/07/30 23:05:39;;;;;;;;;;;;;;;6.32;100.00;99620.31;5012807;28;20376;-89
2023/07/30 23:08:04;;;;;;;;;;;;;;;6.40;100.00;99616.56;5010719;28;19922;-89
2023/07/30 23:10:29;;;;;;;;;;;;;;;6.40;100.00;99614.81;5011779;28;19926;-90
2023/07/30 23:12:55;;;;;;;;;;;;;;;6.93;100.00;99619.41;5011559;28;19976;-86
2023/07/30 23:15:23;;;;;;;;;;;;;;;6.88;100.00;99618.69;5012822;28;20280;-88
2023/07/30 23:17:48;;;;;;;;;;;;;;;6.46;100.00;99612.03;5012713;28;19918;-88
2023/07/30 23:20:13;;;;;;;;;;;;;;;6.51;100.00;99617.13;5011405;28;19925;-89
2023/07/30 23:22:39;;;;;;;;;;;;;;;6.36;100.00;99606.13;5011306;28;19922;-88
2023/07/30 23:25:06;;;;;;;;;;;;;;;6.43;100.00;99611.22;5009688;28;20160;-88
2023/07/30 23:27:31;;;;;;;;;;;;;;;6.30;100.00;99611.59;5012438;28;19917;-88
2023/07/30 23:29:57;;;;;;;;;;;;;;;6.33;100.00;99611.50;5011229;28;19926;-88
2023/07/30 23:32:22;;;;;;;;;;;;;;;6.34;100.00;99612.38;5011267;28;19972;-88
